Terminal Aerodrome Forecast
Issued by NWS Memphis, TN

Home | Current Version | Previous Version | Text Only | Print | Product List | Glossary On
Versions: 1 2 3 4 5 6 7 8 9 10 11 12
000
FTUS44 KMEG 032330
TAFJBR
TAF
KJBR 032330Z 0400/0424 VRB05KT P6SM SCT050
     FM040100 00000KT P6SM SKC
     FM041500 12005KT P6SM SCT040 BKN250=

USA.gov is the U.S. government's official web portal to all federal, state and local government web resources and services.